createdAt,value
2023-02-26T00:01:42.247Z,1.98
2023-02-26T00:04:10.314Z,2.15
2023-02-26T00:06:53.820Z,2.45
2023-02-26T00:09:23.508Z,2.80
2023-02-26T00:11:51.023Z,2.60
2023-02-26T00:14:21.693Z,2.70
2023-02-26T00:17:15.819Z,3.45
2023-02-26T00:19:48.760Z,2.60
2023-02-26T00:22:16.300Z,3.40
2023-02-26T00:24:43.107Z,3.15
2023-02-26T00:27:17.336Z,3.08
2023-02-26T00:29:45.507Z,2.88
2023-02-26T00:32:13.277Z,2.20
2023-02-26T00:34:41.245Z,2.50
2023-02-26T00:37:17.838Z,2.17
2023-02-26T00:39:57.684Z,2.63
2023-02-26T00:42:24.676Z,2.25
2023-02-26T00:44:52.368Z,2.00
2023-02-26T00:47:29.505Z,2.25
2023-02-26T00:50:09.116Z,1.80
2023-02-26T00:52:49.835Z,2.10
2023-02-26T00:55:17.192Z,2.10
2023-02-26T00:57:44.116Z,1.80
2023-02-26T01:00:12.098Z,1.98
2023-02-26T01:02:40.680Z,2.33
2023-02-26T01:05:08.285Z,2.10
2023-02-26T01:07:49.610Z,1.20
2023-02-26T01:10:17.270Z,1.70
2023-02-26T01:12:44.418Z,1.58
2023-02-26T01:15:11.579Z,1.55
2023-02-26T01:17:47.995Z,1.65
2023-02-26T01:20:23.062Z,1.50
2023-02-26T01:22:54.242Z,1.95
2023-02-26T01:25:24.111Z,1.83
2023-02-26T01:27:50.972Z,1.70
2023-02-26T01:30:18.866Z,2.20
2023-02-26T01:32:48.733Z,1.48
2023-02-26T01:35:40.127Z,1.55
2023-02-26T01:38:36.111Z,1.83
2023-02-26T01:41:20.352Z,1.70
2023-02-26T01:44:06.395Z,1.58
2023-02-26T01:47:10.645Z,1.65
2023-02-26T01:49:38.374Z,1.23
2023-02-26T01:52:44.003Z,1.30
2023-02-26T01:55:11.008Z,1.20
2023-02-26T01:57:38.179Z,1.10
2023-02-26T02:00:06.644Z,1.23
2023-02-26T02:02:33.851Z,1.13
2023-02-26T02:05:07.178Z,0.90
2023-02-26T02:07:34.150Z,1.10
2023-02-26T02:10:01.053Z,0.80
2023-02-26T02:12:52.663Z,1.17
2023-02-26T02:15:45.561Z,0.55
2023-02-26T02:18:49.792Z,1.00
2023-02-26T02:21:29.949Z,1.13
2023-02-26T02:24:21.264Z,1.20
2023-02-26T02:27:00.528Z,2.00
2023-02-26T02:29:51.830Z,1.80
2023-02-26T02:32:46.059Z,1.80
2023-02-26T02:35:21.639Z,1.50
2023-02-26T02:37:54.333Z,1.02
2023-02-26T02:40:32.154Z,0.93
2023-02-26T02:43:08.262Z,1.30
2023-02-26T02:45:47.201Z,1.13
2023-02-26T02:48:49.483Z,1.00
2023-02-26T02:51:41.438Z,1.02
2023-02-26T02:54:22.546Z,1.25
2023-02-26T02:56:56.731Z,1.10
2023-02-26T02:59:38.126Z,1.38
2023-02-26T03:02:08.273Z,1.17
2023-02-26T03:04:36.114Z,1.27
2023-02-26T03:07:03.019Z,1.40
2023-02-26T03:09:29.821Z,1.33
2023-02-26T03:11:57.281Z,1.02
2023-02-26T03:14:24.665Z,0.95
2023-02-26T03:17:19.283Z,1.10
2023-02-26T03:19:54.929Z,0.82
2023-02-26T03:22:47.245Z,0.90
2023-02-26T03:25:16.828Z,1.20
2023-02-26T03:28:14.810Z,1.33
2023-02-26T03:31:10.931Z,0.93
2023-02-26T03:34:00.540Z,1.38
2023-02-26T03:36:51.155Z,1.40
2023-02-26T03:39:31.630Z,1.25
2023-02-26T03:42:09.926Z,1.38
2023-02-26T03:44:47.156Z,1.30
2023-02-26T03:47:16.316Z,0.88
2023-02-26T03:49:49.786Z,0.80
2023-02-26T03:52:17.715Z,0.70
2023-02-26T03:54:51.880Z,1.13
2023-02-26T03:57:18.754Z,0.80
2023-02-26T03:59:45.760Z,1.27
2023-02-26T04:02:15.070Z,1.60
2023-02-26T04:04:47.590Z,1.40
2023-02-26T04:07:16.818Z,1.45
2023-02-26T04:09:46.521Z,1.80
2023-02-26T04:12:13.852Z,2.03
2023-02-26T04:14:40.698Z,1.27
2023-02-26T04:17:07.933Z,1.10
2023-02-26T04:19:35.167Z,1.77
2023-02-26T04:22:02.102Z,1.75
2023-02-26T04:24:29.414Z,1.65
2023-02-26T04:26:56.167Z,1.60
2023-02-26T04:29:23.602Z,1.30
2023-02-26T04:31:50.529Z,1.27
2023-02-26T04:34:17.785Z,1.10
2023-02-26T04:36:45.206Z,1.00
2023-02-26T04:39:12.493Z,1.17
2023-02-26T04:41:40.275Z,1.20
2023-02-26T04:44:07.578Z,1.15
2023-02-26T04:46:34.669Z,1.05
2023-02-26T04:49:01.627Z,0.90
2023-02-26T04:51:28.551Z,0.80
2023-02-26T04:53:55.760Z,1.10
2023-02-26T04:56:23.271Z,1.17
2023-02-26T04:58:50.722Z,1.20
2023-02-26T05:01:17.635Z,1.10
2023-02-26T05:03:44.429Z,0.98
2023-02-26T05:06:11.632Z,2.10
2023-02-26T05:08:42.312Z,2.50
2023-02-26T05:11:12.837Z,2.45
2023-02-26T05:13:39.838Z,2.20
2023-02-26T05:16:07.727Z,1.55
2023-02-26T05:18:35.276Z,1.52
2023-02-26T05:21:02.220Z,1.13
2023-02-26T05:23:29.280Z,1.27
2023-02-26T05:25:57.665Z,1.27
2023-02-26T05:28:26.105Z,1.08
2023-02-26T05:30:53.598Z,0.80
2023-02-26T05:33:20.546Z,2.78
2023-02-26T05:35:48.258Z,2.00
2023-02-26T05:38:15.672Z,1.55
2023-02-26T05:40:42.479Z,1.17
2023-02-26T05:43:09.313Z,2.15
2023-02-26T05:45:36.106Z,2.45
2023-02-26T05:48:03.892Z,2.00
2023-02-26T05:50:30.910Z,2.53
2023-02-26T05:52:58.003Z,5.50
2023-02-26T05:55:25.041Z,10.23
2023-02-26T05:57:51.997Z,5.70
2023-02-26T06:00:19.418Z,4.13
2023-02-26T06:02:46.399Z,4.55
2023-02-26T06:05:13.609Z,4.18
2023-02-26T06:07:40.543Z,3.75
2023-02-26T06:10:08.736Z,2.95
2023-02-26T06:12:36.565Z,3.13
2023-02-26T06:15:05.199Z,3.70
2023-02-26T06:17:33.137Z,3.33
2023-02-26T06:20:00.552Z,3.58
2023-02-26T06:22:27.624Z,3.83
2023-02-26T06:24:55.713Z,3.70
2023-02-26T06:27:23.233Z,4.90
2023-02-26T06:29:50.811Z,4.90
2023-02-26T06:32:18.298Z,4.50
2023-02-26T06:34:45.278Z,4.10
2023-02-26T06:37:12.129Z,4.53
2023-02-26T06:39:39.798Z,3.78
2023-02-26T06:42:07.310Z,5.20
2023-02-26T06:44:34.324Z,5.93
2023-02-26T06:47:01.330Z,7.03
2023-02-26T06:49:28.227Z,5.35
2023-02-26T06:51:55.772Z,4.97
2023-02-26T06:54:23.059Z,3.95
2023-02-26T06:56:50.276Z,5.00
2023-02-26T06:59:17.431Z,5.00
2023-02-26T07:01:45.039Z,7.72
2023-02-26T07:04:12.410Z,6.50
2023-02-26T07:06:39.350Z,6.68
2023-02-26T07:09:06.492Z,4.82
2023-02-26T07:11:33.743Z,3.92
2023-02-26T07:14:01.534Z,3.05
2023-02-26T07:16:28.781Z,3.05
2023-02-26T07:18:55.701Z,3.08
2023-02-26T07:21:22.814Z,3.22
2023-02-26T07:23:49.872Z,2.30
2023-02-26T07:26:17.684Z,4.82
2023-02-26T07:28:44.520Z,3.40
2023-02-26T07:31:11.459Z,3.20
2023-02-26T07:33:39.738Z,3.63
2023-02-26T07:36:08.439Z,4.43
2023-02-26T07:38:35.360Z,4.85
2023-02-26T07:41:02.655Z,4.65
2023-02-26T07:43:29.455Z,5.15
2023-02-26T07:45:56.869Z,5.07
2023-02-26T07:48:23.976Z,4.60
2023-02-26T07:50:54.139Z,4.43
2023-02-26T07:53:21.861Z,5.22
2023-02-26T07:55:49.368Z,4.88
2023-02-26T07:58:16.550Z,4.22
2023-02-26T08:00:43.885Z,5.13
2023-02-26T08:03:10.919Z,4.70
2023-02-26T08:05:37.716Z,5.60
2023-02-26T08:08:04.757Z,4.35
2023-02-26T08:10:31.599Z,4.78
2023-02-26T08:12:58.718Z,7.22
2023-02-26T08:15:25.940Z,6.55
2023-02-26T08:17:53.652Z,7.82
2023-02-26T08:20:20.729Z,5.03
2023-02-26T08:22:48.178Z,4.93
2023-02-26T08:25:14.961Z,5.20
2023-02-26T08:27:42.272Z,4.55
2023-02-26T08:30:10.726Z,4.25
2023-02-26T08:32:39.842Z,4.07
2023-02-26T08:35:07.312Z,4.25
2023-02-26T08:37:34.234Z,5.32
2023-02-26T08:40:01.203Z,5.05
2023-02-26T08:42:28.033Z,4.45
2023-02-26T08:44:54.851Z,3.42
2023-02-26T08:47:28.540Z,3.38
2023-02-26T08:49:56.499Z,3.47
2023-02-26T08:52:23.654Z,2.92
2023-02-26T08:54:51.256Z,2.92
2023-02-26T08:57:18.335Z,3.15
2023-02-26T08:59:45.182Z,3.20
2023-02-26T09:02:13.247Z,2.95
2023-02-26T09:04:40.364Z,2.95
2023-02-26T09:07:07.699Z,4.20
2023-02-26T09:09:35.097Z,4.95
2023-02-26T09:12:01.978Z,6.25
2023-02-26T09:14:28.952Z,4.93
2023-02-26T09:16:55.801Z,8.75
2023-02-26T09:19:22.707Z,10.80
2023-02-26T09:21:49.559Z,11.32
2023-02-26T09:24:17.020Z,13.52
2023-02-26T09:26:44.468Z,16.02
2023-02-26T09:29:14.648Z,12.73
2023-02-26T09:31:41.789Z,21.15
2023-02-26T09:34:11.115Z,18.05
2023-02-26T09:36:38.982Z,14.20
2023-02-26T09:39:06.804Z,19.02
2023-02-26T09:41:40.115Z,18.45
2023-02-26T09:44:27.016Z,18.58
2023-02-26T09:47:03.449Z,23.88
2023-02-26T09:49:30.270Z,27.02
2023-02-26T09:52:05.396Z,21.88
2023-02-26T09:54:46.509Z,23.15
2023-02-26T09:57:35.624Z,24.13
2023-02-26T10:00:24.293Z,24.20
2023-02-26T10:03:07.431Z,23.40
2023-02-26T10:05:53.682Z,24.60
2023-02-26T10:08:26.666Z,21.33
2023-02-26T10:11:24.948Z,22.75
2023-02-26T10:14:02.582Z,25.77
2023-02-26T10:16:37.690Z,25.15
2023-02-26T10:19:18.648Z,22.50
2023-02-26T10:22:11.341Z,21.83
2023-02-26T10:24:49.241Z,24.33
2023-02-26T10:27:24.726Z,22.70
2023-02-26T10:30:02.919Z,22.60
2023-02-26T10:32:41.876Z,22.02
2023-02-26T10:35:15.770Z,16.00
2023-02-26T10:38:03.026Z,16.67
2023-02-26T10:40:37.053Z,20.70
2023-02-26T10:43:29.777Z,25.85
2023-02-26T10:46:03.294Z,29.42
2023-02-26T10:48:36.249Z,30.25
2023-02-26T10:51:21.434Z,26.92
2023-02-26T10:53:59.850Z,36.08
2023-02-26T10:56:31.672Z,41.58
2023-02-26T10:58:59.039Z,25.17
2023-02-26T11:01:29.206Z,20.52
2023-02-26T11:04:02.518Z,20.05
2023-02-26T11:06:34.585Z,34.17
2023-02-26T11:09:02.622Z,40.10
2023-02-26T11:12:01.682Z,29.85
2023-02-26T11:14:30.794Z,31.73
2023-02-26T11:17:01.619Z,42.65
2023-02-26T11:19:36.517Z,35.28
2023-02-26T11:22:05.211Z,28.10
2023-02-26T11:24:40.807Z,23.55
2023-02-26T11:27:35.554Z,24.00
2023-02-26T11:30:15.618Z,22.30
2023-02-26T11:32:45.528Z,26.10
2023-02-26T11:35:15.438Z,22.55
2023-02-26T11:37:48.912Z,21.23
2023-02-26T11:43:16.918Z,22.80
2023-02-26T11:45:47.355Z,21.23
2023-02-26T11:48:24.007Z,22.30
2023-02-26T11:50:56.652Z,19.95
2023-02-26T11:53:35.905Z,19.70
2023-02-26T11:56:14.440Z,18.98
2023-02-26T11:58:45.261Z,18.98
2023-02-26T12:01:14.451Z,18.88
2023-02-26T12:03:46.287Z,15.38
2023-02-26T12:06:24.794Z,17.80
2023-02-26T12:08:53.409Z,16.70
2023-02-26T12:11:35.735Z,20.23
2023-02-26T12:14:17.669Z,19.83
2023-02-26T12:17:22.055Z,18.92
2023-02-26T12:20:20.739Z,22.10
2023-02-26T12:23:21.562Z,22.67
2023-02-26T12:26:07.248Z,23.80
2023-02-26T12:28:43.075Z,18.38
2023-02-26T12:31:15.674Z,16.00
2023-02-26T12:33:45.766Z,19.65
2023-02-26T12:36:23.360Z,18.63
2023-02-26T12:39:09.172Z,20.08
2023-02-26T12:44:39.681Z,20.85
2023-02-26T12:47:17.195Z,21.70
2023-02-26T12:50:08.788Z,23.25
2023-02-26T12:52:41.825Z,25.50
2023-02-26T12:55:14.724Z,21.20
2023-02-26T12:58:11.773Z,22.15
2023-02-26T13:01:02.913Z,27.45
2023-02-26T13:03:42.992Z,40.30
2023-02-26T13:06:34.257Z,39.67
2023-02-26T13:09:19.661Z,35.60
2023-02-26T13:12:17.006Z,29.00
2023-02-26T13:14:52.392Z,32.55
2023-02-26T13:17:26.844Z,28.02
2023-02-26T13:20:00.699Z,25.52
2023-02-26T13:22:42.576Z,20.40
2023-02-26T13:25:26.497Z,20.15
2023-02-26T13:27:54.952Z,17.73
2023-02-26T13:30:31.032Z,14.48
2023-02-26T13:32:59.862Z,16.30
2023-02-26T13:35:33.332Z,15.40
2023-02-26T13:38:03.576Z,15.55
2023-02-26T13:40:47.977Z,15.20
2023-02-26T13:43:38.581Z,14.10
2023-02-26T13:46:11.687Z,16.88
2023-02-26T13:48:58.884Z,14.20
2023-02-26T13:51:39.715Z,11.32
2023-02-26T13:54:16.689Z,12.98
2023-02-26T13:57:06.637Z,14.80
2023-02-26T13:59:48.480Z,14.70
2023-02-26T14:02:18.756Z,14.15
2023-02-26T14:04:54.600Z,14.25
2023-02-26T14:07:54.553Z,14.05
2023-02-26T14:10:44.075Z,13.40
2023-02-26T14:13:19.550Z,12.95
2023-02-26T14:16:11.116Z,12.57
2023-02-26T14:18:48.246Z,19.80
2023-02-26T14:21:28.066Z,17.10
2023-02-26T14:24:06.761Z,14.88
2023-02-26T14:26:37.027Z,19.02
2023-02-26T14:29:06.593Z,19.90
2023-02-26T14:31:51.938Z,17.27
2023-02-26T14:34:28.293Z,14.48
2023-02-26T14:37:01.576Z,18.67
2023-02-26T14:39:43.261Z,19.77
2023-02-26T14:42:36.118Z,19.35
2023-02-26T14:45:18.766Z,14.27
2023-02-26T14:47:47.177Z,21.67
2023-02-26T14:50:20.993Z,42.00
2023-02-26T14:53:28.366Z,33.22
2023-02-26T14:56:13.561Z,30.60
2023-02-26T14:58:53.872Z,38.40
2023-02-26T15:01:21.951Z,23.20
2023-02-26T15:04:05.209Z,25.95
2023-02-26T15:06:42.771Z,24.95
2023-02-26T15:09:40.476Z,23.15
2023-02-26T15:12:38.462Z,22.70
2023-02-26T15:18:14.201Z,19.10
2023-02-26T15:23:43.677Z,14.10
2023-02-26T15:26:34.897Z,14.27
2023-02-26T15:29:05.679Z,13.30
2023-02-26T15:31:40.496Z,13.02
2023-02-26T15:34:11.093Z,12.07
2023-02-26T15:36:45.722Z,13.32
2023-02-26T15:39:18.716Z,13.48
2023-02-26T15:41:50.368Z,14.73
2023-02-26T15:47:31.466Z,15.63
2023-02-26T15:50:01.605Z,13.65
2023-02-26T15:52:29.761Z,17.85
2023-02-26T15:57:49.040Z,16.65
2023-02-26T16:00:24.768Z,17.10
2023-02-26T16:02:57.004Z,21.38
2023-02-26T16:05:29.392Z,16.73
2023-02-26T16:07:57.080Z,16.23
2023-02-26T16:10:35.303Z,13.85
2023-02-26T16:13:06.270Z,17.85
2023-02-26T16:15:37.815Z,18.05
2023-02-26T16:18:08.927Z,16.08
2023-02-26T16:20:41.536Z,15.60
2023-02-26T16:23:27.076Z,15.68
2023-02-26T16:25:59.851Z,16.40
2023-02-26T16:28:33.781Z,18.75
2023-02-26T16:31:04.824Z,28.45
2023-02-26T16:33:35.458Z,25.85
2023-02-26T16:36:15.795Z,21.17
2023-02-26T16:39:10.356Z,23.27
2023-02-26T16:41:41.114Z,23.50
2023-02-26T16:44:29.577Z,18.27
2023-02-26T16:46:58.299Z,21.77
2023-02-26T16:49:37.449Z,18.13
2023-02-26T16:52:06.098Z,19.63
2023-02-26T16:54:41.344Z,18.08
2023-02-26T16:57:18.287Z,17.52
2023-02-26T16:59:59.369Z,19.80
2023-02-26T17:02:41.866Z,21.50
2023-02-26T17:05:28.873Z,16.63
2023-02-26T17:08:06.198Z,21.98
2023-02-26T17:10:49.687Z,22.92
2023-02-26T17:13:31.564Z,20.13
2023-02-26T17:16:12.654Z,21.10
2023-02-26T17:18:39.649Z,23.52
2023-02-26T17:21:13.799Z,18.20
2023-02-26T17:23:41.089Z,19.10
2023-02-26T17:26:09.199Z,22.92
2023-02-26T17:28:40.510Z,23.77
2023-02-26T17:31:07.755Z,19.88
2023-02-26T17:33:36.676Z,23.88
2023-02-26T17:36:04.843Z,21.15
2023-02-26T17:38:33.548Z,19.30
2023-02-26T17:41:00.915Z,21.45
2023-02-26T17:43:28.806Z,19.52
2023-02-26T17:45:59.069Z,17.10
2023-02-26T17:48:25.981Z,17.52
2023-02-26T17:50:57.841Z,18.60
2023-02-26T17:53:29.643Z,20.55
2023-02-26T17:55:57.444Z,23.23
2023-02-26T17:58:33.751Z,20.25
2023-02-26T18:01:03.608Z,27.73
2023-02-26T18:03:30.774Z,23.23
2023-02-26T18:05:58.019Z,20.95
2023-02-26T18:08:35.171Z,23.98
2023-02-26T18:11:03.576Z,25.58
2023-02-26T18:13:31.216Z,22.58
2023-02-26T18:15:59.220Z,19.83
2023-02-26T18:18:26.683Z,20.88
2023-02-26T18:20:53.848Z,19.58
2023-02-26T18:23:21.654Z,18.38
2023-02-26T18:25:50.986Z,16.65
2023-02-26T18:28:26.867Z,17.73
2023-02-26T18:30:54.978Z,18.70
2023-02-26T18:33:26.558Z,19.23
2023-02-26T18:35:57.233Z,19.08
2023-02-26T18:38:27.157Z,17.30
2023-02-26T18:40:54.876Z,18.73
2023-02-26T18:43:22.312Z,15.20
2023-02-26T18:45:50.751Z,21.30
2023-02-26T18:48:20.097Z,20.55
2023-02-26T18:50:47.556Z,21.65
2023-02-26T18:53:17.075Z,24.55
2023-02-26T18:55:44.123Z,17.08
2023-02-26T18:58:11.656Z,21.25
2023-02-26T19:00:38.659Z,23.45
2023-02-26T19:03:05.842Z,19.08
2023-02-26T19:05:34.789Z,21.25
2023-02-26T19:08:02.104Z,20.67
2023-02-26T19:10:30.069Z,17.40
2023-02-26T19:12:56.955Z,18.63
2023-02-26T19:15:25.041Z,15.65
2023-02-26T19:17:52.349Z,17.23
2023-02-26T19:20:19.778Z,13.90
2023-02-26T19:22:47.151Z,17.67
2023-02-26T19:25:14.628Z,17.70
2023-02-26T19:27:41.536Z,22.33
2023-02-26T19:30:09.286Z,29.67
2023-02-26T19:32:36.297Z,26.08
2023-02-26T19:35:03.478Z,32.78
2023-02-26T19:37:30.505Z,28.60
2023-02-26T19:39:57.794Z,22.98
2023-02-26T19:42:24.812Z,21.67
2023-02-26T19:44:51.863Z,19.67
2023-02-26T19:47:19.131Z,19.83
2023-02-26T19:49:46.049Z,17.40
2023-02-26T19:52:12.910Z,21.70
2023-02-26T19:54:43.003Z,19.02
2023-02-26T19:57:10.262Z,20.65
2023-02-26T19:59:37.223Z,19.42
2023-02-26T20:02:05.669Z,21.05
2023-02-26T20:04:33.433Z,19.25
2023-02-26T20:07:00.318Z,17.52
2023-02-26T20:09:28.032Z,17.27
2023-02-26T20:11:56.273Z,17.23
2023-02-26T20:14:27.737Z,17.20
2023-02-26T20:16:58.373Z,17.88
2023-02-26T20:19:37.107Z,17.45
2023-02-26T20:22:07.543Z,18.52
2023-02-26T20:24:35.077Z,23.73
2023-02-26T20:27:02.005Z,20.33
2023-02-26T20:29:28.860Z,17.13
2023-02-26T20:31:59.180Z,22.35
2023-02-26T20:34:30.595Z,19.23
2023-02-26T20:36:57.458Z,20.60
2023-02-26T20:39:24.834Z,21.08
2023-02-26T20:41:55.614Z,19.30
2023-02-26T20:44:23.025Z,19.02
2023-02-26T20:46:50.377Z,24.58
2023-02-26T20:49:20.202Z,25.20
2023-02-26T20:51:50.691Z,26.92
2023-02-26T20:54:20.235Z,27.73
2023-02-26T20:56:50.364Z,27.63
2023-02-26T20:59:21.030Z,23.63
2023-02-26T21:01:51.442Z,23.88
2023-02-26T21:04:19.922Z,23.67
2023-02-26T21:06:47.208Z,20.52
2023-02-26T21:09:16.949Z,20.77
2023-02-26T21:11:44.910Z,25.15
2023-02-26T21:14:12.306Z,20.52
2023-02-26T21:16:41.473Z,19.25
2023-02-26T21:19:08.920Z,19.33
2023-02-26T21:21:36.270Z,18.90
2023-02-26T21:24:03.636Z,16.95
2023-02-26T21:26:30.475Z,17.95
2023-02-26T21:29:04.941Z,17.98
2023-02-26T21:31:38.475Z,19.60
2023-02-26T21:34:32.778Z,17.07
2023-02-26T21:37:00.836Z,16.13
2023-02-26T21:39:31.604Z,17.85
2023-02-26T21:42:01.102Z,16.83
2023-02-26T21:44:28.633Z,15.63
2023-02-26T21:46:57.472Z,16.77
2023-02-26T21:49:30.860Z,14.90
2023-02-26T21:52:03.726Z,16.50
2023-02-26T21:54:31.028Z,16.35
2023-02-26T21:56:59.296Z,14.20
2023-02-26T21:59:31.083Z,15.30
2023-02-26T22:01:57.979Z,14.18
2023-02-26T22:04:24.829Z,16.40
2023-02-26T22:06:52.145Z,18.63
2023-02-26T22:09:19.226Z,16.83
2023-02-26T22:11:47.148Z,23.80
2023-02-26T22:14:14.057Z,18.67
2023-02-26T22:16:41.156Z,15.15
2023-02-26T22:19:08.042Z,15.50
2023-02-26T22:21:35.316Z,16.27
2023-02-26T22:24:05.618Z,15.48
2023-02-26T22:26:32.703Z,15.10
2023-02-26T22:29:00.842Z,16.75
2023-02-26T22:31:32.270Z,16.45
2023-02-26T22:34:02.029Z,14.90
2023-02-26T22:36:31.203Z,15.18
2023-02-26T22:38:58.322Z,15.25
2023-02-26T22:41:25.299Z,12.88
2023-02-26T22:43:54.020Z,12.77
2023-02-26T22:46:24.335Z,13.98
2023-02-26T22:48:51.464Z,13.00
2023-02-26T22:51:20.696Z,13.20
2023-02-26T22:53:48.204Z,13.07
2023-02-26T22:56:15.223Z,13.27
2023-02-26T22:58:42.033Z,11.57
2023-02-26T23:01:09.939Z,11.13
2023-02-26T23:03:36.919Z,11.63
2023-02-26T23:06:04.075Z,10.95
2023-02-26T23:08:30.887Z,10.35
2023-02-26T23:10:59.359Z,10.05
2023-02-26T23:13:30.264Z,10.15
2023-02-26T23:15:58.229Z,10.82
2023-02-26T23:18:25.501Z,9.85
2023-02-26T23:20:53.002Z,9.75
2023-02-26T23:23:20.268Z,9.35
2023-02-26T23:25:47.190Z,8.77
2023-02-26T23:28:14.237Z,9.93
2023-02-26T23:30:41.409Z,9.13
2023-02-26T23:33:09.032Z,8.52
2023-02-26T23:35:36.421Z,8.90
2023-02-26T23:38:04.456Z,8.70
2023-02-26T23:40:32.739Z,7.82
2023-02-26T23:42:59.812Z,8.20
2023-02-26T23:45:31.834Z,8.15
2023-02-26T23:47:58.808Z,8.25
2023-02-26T23:50:26.108Z,8.00
2023-02-26T23:52:53.307Z,6.75
2023-02-26T23:55:20.074Z,6.20
2023-02-26T23:57:46.870Z,5.85
